createdAt,value
2018-12-12T00:00:39.705Z,3.70
2018-12-12T00:03:08.623Z,3.50
2018-12-12T00:05:37.541Z,3.60
2018-12-12T00:08:06.419Z,3.50
2018-12-12T00:10:35.428Z,4.20
2018-12-12T00:13:04.411Z,3.77
2018-12-12T00:15:33.310Z,4.00
2018-12-12T00:18:02.461Z,3.50
2018-12-12T00:20:31.507Z,3.73
2018-12-12T00:23:00.644Z,3.80
2018-12-12T00:25:29.590Z,3.30
2018-12-12T00:27:58.478Z,2.87
2018-12-12T00:30:27.413Z,3.77
2018-12-12T00:32:56.309Z,3.83
2018-12-12T00:35:25.400Z,4.10
2018-12-12T00:37:54.413Z,3.57
2018-12-12T00:40:23.325Z,4.00
2018-12-12T00:42:52.121Z,3.83
2018-12-12T00:45:21.021Z,3.70
2018-12-12T00:47:50.105Z,3.77
2018-12-12T00:50:19.001Z,3.97
2018-12-12T00:52:47.898Z,4.00
2018-12-12T00:55:16.931Z,3.40
2018-12-12T00:57:46.277Z,3.80
2018-12-12T01:00:15.193Z,3.40
2018-12-12T01:02:44.118Z,3.70
2018-12-12T01:05:13.125Z,3.50
2018-12-12T01:07:42.042Z,3.50
2018-12-12T01:10:10.967Z,3.47
2018-12-12T01:12:39.988Z,3.30
2018-12-12T01:15:09.022Z,3.20
2018-12-12T01:17:37.946Z,4.10
2018-12-12T01:20:06.784Z,3.07
2018-12-12T01:22:35.787Z,3.00
2018-12-12T01:25:04.814Z,3.40
2018-12-12T01:27:33.745Z,3.20
2018-12-12T01:30:02.994Z,3.60
2018-12-12T01:32:32.008Z,3.43
2018-12-12T01:35:00.901Z,3.27
2018-12-12T01:37:29.945Z,2.97
2018-12-12T01:39:58.944Z,3.10
2018-12-12T01:42:27.861Z,3.50
2018-12-12T01:44:56.756Z,3.27
2018-12-12T01:47:25.673Z,3.77
2018-12-12T01:49:54.592Z,3.50
2018-12-12T01:52:23.635Z,3.80
2018-12-12T01:54:52.782Z,3.27
2018-12-12T01:57:21.672Z,3.83
2018-12-12T01:59:50.569Z,4.33
2018-12-12T02:02:19.479Z,3.83
2018-12-12T02:04:48.487Z,4.17
2018-12-12T02:07:17.586Z,3.70
2018-12-12T02:09:46.377Z,3.30
2018-12-12T02:12:15.305Z,3.83
2018-12-12T02:14:44.200Z,3.30
2018-12-12T02:17:13.221Z,3.63
2018-12-12T02:19:42.161Z,3.47
2018-12-12T02:22:11.176Z,3.43
2018-12-12T02:24:40.196Z,5.97
2018-12-12T02:27:09.091Z,4.30
2018-12-12T02:29:38.133Z,3.50
2018-12-12T02:32:07.054Z,3.13
2018-12-12T02:34:35.940Z,4.00
2018-12-12T02:37:04.873Z,3.63
2018-12-12T02:39:33.806Z,3.70
2018-12-12T02:42:02.629Z,3.20
2018-12-12T02:44:31.625Z,3.37
2018-12-12T02:47:00.538Z,3.40
2018-12-12T02:49:29.448Z,3.50
2018-12-12T02:51:58.325Z,3.63
2018-12-12T02:54:27.265Z,3.30
2018-12-12T02:56:56.161Z,4.03
2018-12-12T02:59:25.060Z,3.80
2018-12-12T03:01:54.150Z,3.83
2018-12-12T03:04:23.184Z,3.43
2018-12-12T03:06:52.184Z,3.60
2018-12-12T03:09:21.083Z,3.70
2018-12-12T03:11:49.894Z,3.80
2018-12-12T03:14:18.769Z,3.67
2018-12-12T03:16:47.554Z,3.40
2018-12-12T03:19:16.443Z,3.37
2018-12-12T03:21:45.453Z,3.60
2018-12-12T03:24:14.448Z,3.90
2018-12-12T03:26:43.241Z,3.83
2018-12-12T03:29:12.016Z,3.73
2018-12-12T03:31:41.417Z,3.43
2018-12-12T03:34:10.356Z,4.10
2018-12-12T03:36:39.182Z,4.00
2018-12-12T03:39:08.135Z,3.97
2018-12-12T03:41:37.211Z,3.60
2018-12-12T03:44:06.149Z,3.90
2018-12-12T03:46:35.174Z,3.77
2018-12-12T03:49:04.080Z,3.80
2018-12-12T03:51:33.010Z,3.97
2018-12-12T03:54:02.042Z,4.10
2018-12-12T03:56:30.968Z,4.07
2018-12-12T03:58:59.781Z,3.40
2018-12-12T04:01:29.738Z,4.43
2018-12-12T04:03:58.843Z,4.37
2018-12-12T04:06:27.760Z,4.30
2018-12-12T04:08:56.747Z,4.37
2018-12-12T04:11:25.661Z,4.40
2018-12-12T04:13:54.700Z,4.27
2018-12-12T04:16:23.857Z,5.23
2018-12-12T04:18:53.197Z,4.83
2018-12-12T04:21:22.091Z,4.67
2018-12-12T04:26:43.226Z,4.33
2018-12-12T04:29:12.108Z,4.60
2018-12-12T04:31:41.547Z,3.80
2018-12-12T04:34:10.460Z,4.23
2018-12-12T04:36:39.401Z,4.67
2018-12-12T04:39:08.303Z,4.77
2018-12-12T04:41:37.216Z,4.20
2018-12-12T04:44:06.300Z,5.30
2018-12-12T04:46:35.297Z,4.80
2018-12-12T04:49:04.234Z,4.73
2018-12-12T04:51:33.334Z,4.97
2018-12-12T04:54:02.116Z,4.73
2018-12-12T04:56:31.158Z,5.10
2018-12-12T04:59:00.422Z,5.30
2018-12-12T05:01:29.349Z,5.23
2018-12-12T05:03:58.260Z,5.00
2018-12-12T05:06:27.422Z,5.23
2018-12-12T05:08:56.338Z,5.93
2018-12-12T05:11:25.270Z,4.63
2018-12-12T05:13:54.081Z,5.03
2018-12-12T05:16:23.019Z,4.90
2018-12-12T05:18:51.938Z,5.07
2018-12-12T05:21:20.741Z,5.60
2018-12-12T05:23:49.641Z,4.50
2018-12-12T05:26:18.565Z,5.00
2018-12-12T05:28:47.384Z,4.57
2018-12-12T05:31:16.299Z,4.67
2018-12-12T05:33:45.174Z,4.47
2018-12-12T05:36:14.051Z,4.07
2018-12-12T05:38:43.060Z,4.70
2018-12-12T05:41:11.951Z,5.37
2018-12-12T05:43:40.747Z,6.07
2018-12-12T05:46:09.753Z,8.67
2018-12-12T05:48:38.577Z,11.97
2018-12-12T05:51:07.514Z,23.47
2018-12-12T05:53:36.449Z,21.90
2018-12-12T05:56:05.483Z,24.93
2018-12-12T05:58:34.599Z,23.90
2018-12-12T06:01:03.658Z,23.87
2018-12-12T06:03:33.759Z,21.33
2018-12-12T06:06:03.093Z,19.60
2018-12-12T06:08:32.108Z,15.67
2018-12-12T06:11:01.195Z,15.23
2018-12-12T06:13:30.224Z,12.53
2018-12-12T06:15:59.118Z,14.43
2018-12-12T06:18:28.024Z,13.53
2018-12-12T06:20:57.037Z,12.63
2018-12-12T06:23:26.086Z,12.83
2018-12-12T06:25:54.894Z,13.47
2018-12-12T06:28:23.884Z,13.13
2018-12-12T06:30:52.713Z,13.13
2018-12-12T06:33:21.598Z,15.70
2018-12-12T06:35:50.521Z,17.40
2018-12-12T06:38:19.846Z,22.63
2018-12-12T06:40:49.034Z,15.50
2018-12-12T06:43:18.917Z,15.27
2018-12-12T06:45:47.805Z,11.93
2018-12-12T06:48:16.774Z,10.30
2018-12-12T06:50:45.686Z,8.93
2018-12-12T06:53:14.701Z,10.40
2018-12-12T06:55:43.662Z,12.47
2018-12-12T06:58:12.662Z,11.73
2018-12-12T07:00:41.739Z,12.90
2018-12-12T07:03:10.553Z,12.70
2018-12-12T07:05:39.481Z,12.07
2018-12-12T07:08:08.381Z,12.67
2018-12-12T07:10:37.302Z,14.30
2018-12-12T07:13:06.213Z,14.53
2018-12-12T07:15:34.997Z,13.40
2018-12-12T07:18:03.825Z,15.40
2018-12-12T07:20:32.756Z,15.77
2018-12-12T07:23:01.644Z,21.67
2018-12-12T07:25:30.573Z,20.87
2018-12-12T07:27:59.396Z,16.37
2018-12-12T07:30:28.477Z,18.53
2018-12-12T07:32:57.488Z,15.47
2018-12-12T07:35:26.484Z,14.30
2018-12-12T07:37:55.428Z,8.07
2018-12-12T07:40:24.445Z,8.27
2018-12-12T07:42:53.472Z,8.27
2018-12-12T07:45:22.413Z,9.20
2018-12-12T07:47:51.371Z,7.87
2018-12-12T07:50:20.183Z,9.13
2018-12-12T07:52:49.200Z,8.43
2018-12-12T07:55:18.185Z,6.53
2018-12-12T07:57:47.109Z,7.43
2018-12-12T08:00:15.975Z,6.70
2018-12-12T08:02:45.088Z,7.10
2018-12-12T08:05:14.025Z,8.73
2018-12-12T08:07:42.936Z,7.33
2018-12-12T08:10:11.969Z,7.90
2018-12-12T08:12:40.885Z,6.30
2018-12-12T08:15:09.812Z,6.40
2018-12-12T08:17:39.041Z,8.20
2018-12-12T08:20:07.898Z,6.63
2018-12-12T08:22:37.114Z,6.53
2018-12-12T08:25:06.340Z,8.77
2018-12-12T08:27:35.249Z,8.20
2018-12-12T08:30:04.843Z,5.40
2018-12-12T08:32:33.881Z,6.07
2018-12-12T08:35:02.969Z,5.33
2018-12-12T08:37:31.956Z,5.30
2018-12-12T08:40:00.792Z,6.00
2018-12-12T08:42:29.732Z,5.70
2018-12-12T08:44:58.641Z,6.67
2018-12-12T08:47:27.529Z,5.00
2018-12-12T08:49:56.556Z,4.87
2018-12-12T08:52:25.366Z,5.67
2018-12-12T08:54:54.813Z,6.03
2018-12-12T08:57:23.873Z,5.40
2018-12-12T08:59:53.517Z,4.80
2018-12-12T09:02:22.335Z,5.20
2018-12-12T09:04:51.243Z,5.57
2018-12-12T09:07:20.205Z,4.90
2018-12-12T09:09:49.080Z,5.33
2018-12-12T09:12:18.198Z,4.60
2018-12-12T09:14:47.539Z,6.87
2018-12-12T09:17:16.549Z,6.90
2018-12-12T09:19:45.504Z,6.03
2018-12-12T09:22:14.425Z,4.50
2018-12-12T09:24:43.216Z,5.43
2018-12-12T09:27:12.141Z,5.10
2018-12-12T09:29:41.046Z,4.30
2018-12-12T09:32:10.045Z,4.90
2018-12-12T09:34:38.873Z,4.03
2018-12-12T09:37:07.985Z,4.53
2018-12-12T09:39:36.996Z,4.33
2018-12-12T09:42:05.849Z,4.20
2018-12-12T09:44:34.965Z,4.50
2018-12-12T09:47:05.549Z,5.13
2018-12-12T09:49:34.798Z,3.67
2018-12-12T09:52:03.933Z,3.30
2018-12-12T09:54:33.465Z,3.60
2018-12-12T09:57:02.515Z,4.63
2018-12-12T09:59:31.450Z,3.30
2018-12-12T10:02:00.373Z,3.70
2018-12-12T10:04:29.653Z,5.37
2018-12-12T10:06:58.690Z,5.00
2018-12-12T10:09:27.630Z,4.53
2018-12-12T10:11:56.528Z,4.30
2018-12-12T10:14:26.299Z,4.20
2018-12-12T10:16:55.519Z,3.57
2018-12-12T10:19:24.528Z,3.80
2018-12-12T10:21:54.602Z,4.47
2018-12-12T10:24:24.929Z,3.50
2018-12-12T10:26:53.837Z,3.83
2018-12-12T10:29:24.846Z,3.33
2018-12-12T10:31:53.920Z,3.63
2018-12-12T10:34:25.921Z,3.60
2018-12-12T10:36:55.066Z,3.43
2018-12-12T10:39:24.109Z,3.30
2018-12-12T10:41:52.997Z,3.27
2018-12-12T10:44:21.919Z,3.33
2018-12-12T10:46:50.828Z,2.97
2018-12-12T10:49:19.848Z,3.20
2018-12-12T10:51:48.894Z,3.73
2018-12-12T10:54:17.921Z,3.47
2018-12-12T10:56:47.076Z,3.80
2018-12-12T10:59:15.997Z,3.67
2018-12-12T11:01:46.958Z,3.87
2018-12-12T11:04:17.834Z,3.27
2018-12-12T11:06:46.686Z,4.80
2018-12-12T11:09:15.592Z,4.67
2018-12-12T11:11:44.532Z,4.30
2018-12-12T11:14:13.494Z,4.40
2018-12-12T11:16:42.444Z,5.23
2018-12-12T11:19:11.397Z,4.43
2018-12-12T11:21:40.393Z,4.23
2018-12-12T11:24:09.412Z,4.70
2018-12-12T11:26:38.339Z,4.03
2018-12-12T11:29:07.242Z,3.73
2018-12-12T11:31:36.257Z,3.70
2018-12-12T11:34:05.286Z,3.70
2018-12-12T11:36:34.473Z,3.90
2018-12-12T11:39:04.751Z,3.87
2018-12-12T11:41:33.690Z,3.73
2018-12-12T11:44:02.573Z,3.57
2018-12-12T11:46:31.571Z,4.07
2018-12-12T11:49:00.362Z,4.43
2018-12-12T11:51:29.895Z,6.07
2018-12-12T11:53:58.791Z,4.30
2018-12-12T11:56:27.714Z,5.17
2018-12-12T11:58:56.616Z,4.17
2018-12-12T12:01:25.637Z,4.93
2018-12-12T12:03:56.843Z,4.60
2018-12-12T12:06:25.875Z,4.50
2018-12-12T12:08:54.873Z,5.10
2018-12-12T12:11:23.772Z,4.90
2018-12-12T12:13:52.684Z,5.37
2018-12-12T12:16:21.780Z,4.87
2018-12-12T12:18:50.984Z,4.47
2018-12-12T12:21:19.997Z,4.83
2018-12-12T12:23:49.016Z,5.73
2018-12-12T12:26:18.102Z,5.53
2018-12-12T12:28:47.107Z,5.77
2018-12-12T12:31:17.107Z,5.37
2018-12-12T12:33:46.400Z,5.30
2018-12-12T12:36:15.320Z,6.03
2018-12-12T12:38:44.431Z,5.90
2018-12-12T12:41:13.442Z,5.20
2018-12-12T12:43:42.661Z,5.07
2018-12-12T12:46:11.600Z,4.97
2018-12-12T12:48:40.616Z,6.00
2018-12-12T12:51:09.526Z,5.63
2018-12-12T12:53:38.661Z,5.50
2018-12-12T12:56:07.521Z,4.73
2018-12-12T12:58:36.596Z,4.87
2018-12-12T13:01:05.799Z,5.07
2018-12-12T13:03:35.106Z,5.53
2018-12-12T13:06:04.538Z,5.50
2018-12-12T13:08:33.621Z,5.17
2018-12-12T13:11:02.538Z,4.23
2018-12-12T13:13:31.643Z,4.57
2018-12-12T13:16:00.719Z,5.03
2018-12-12T13:18:30.606Z,5.20
2018-12-12T13:20:59.633Z,4.53
2018-12-12T13:23:28.636Z,5.30
2018-12-12T13:25:57.654Z,5.63
2018-12-12T13:28:26.687Z,6.40
2018-12-12T13:30:55.897Z,6.00
2018-12-12T13:33:24.996Z,7.00
2018-12-12T13:35:53.932Z,6.00
2018-12-12T13:38:23.136Z,5.13
2018-12-12T13:40:52.121Z,5.00
2018-12-12T13:43:21.197Z,5.73
2018-12-12T13:45:50.235Z,5.47
2018-12-12T13:48:19.130Z,5.40
2018-12-12T13:50:48.777Z,5.90
2018-12-12T13:53:18.038Z,6.17
2018-12-12T13:55:47.461Z,5.80
2018-12-12T13:58:16.856Z,6.43
2018-12-12T14:00:45.816Z,5.90
2018-12-12T14:03:14.736Z,6.17
2018-12-12T14:05:44.009Z,6.77
2018-12-12T14:08:13.340Z,6.87
2018-12-12T14:10:42.605Z,6.93
2018-12-12T14:13:11.779Z,8.10
2018-12-12T14:15:40.880Z,7.83
2018-12-12T14:18:10.294Z,6.67
2018-12-12T14:20:39.303Z,6.27
2018-12-12T14:23:09.070Z,6.57
2018-12-12T14:25:38.274Z,6.73
2018-12-12T14:28:07.389Z,8.10
2018-12-12T14:30:36.820Z,7.30
2018-12-12T14:33:05.918Z,6.93
2018-12-12T14:35:34.829Z,6.27
2018-12-12T14:38:04.269Z,7.23
2018-12-12T14:40:33.565Z,7.00
2018-12-12T14:43:02.601Z,7.87
2018-12-12T14:45:31.998Z,8.07
2018-12-12T14:48:00.929Z,9.57
2018-12-12T14:50:30.426Z,8.87
2018-12-12T14:52:59.461Z,8.87
2018-12-12T14:55:28.971Z,9.50
2018-12-12T14:57:57.885Z,11.27
2018-12-12T15:00:27.546Z,12.80
2018-12-12T15:02:57.269Z,13.53
2018-12-12T15:05:26.421Z,13.10
2018-12-12T15:07:55.703Z,14.07
2018-12-12T15:10:25.055Z,15.63
2018-12-12T15:12:54.442Z,14.00
2018-12-12T15:15:25.989Z,14.13
2018-12-12T15:17:56.163Z,13.60
2018-12-12T15:20:25.325Z,15.33
2018-12-12T15:22:54.800Z,18.07
2018-12-12T15:25:23.817Z,23.73
2018-12-12T15:27:52.874Z,27.83
2018-12-12T15:30:22.020Z,35.60
2018-12-12T15:32:52.349Z,39.77
2018-12-12T15:35:21.441Z,45.50
2018-12-12T15:37:50.790Z,47.00
2018-12-12T15:40:19.867Z,51.33
2018-12-12T15:42:48.869Z,49.20
2018-12-12T15:45:17.847Z,41.93
2018-12-12T15:47:47.147Z,39.17
2018-12-12T15:50:16.409Z,34.90
2018-12-12T15:52:45.514Z,35.30
2018-12-12T15:55:14.597Z,30.73
2018-12-12T15:57:43.708Z,31.07
2018-12-12T16:00:13.173Z,32.40
2018-12-12T16:02:42.573Z,34.37
2018-12-12T16:05:12.155Z,45.47
2018-12-12T16:07:41.476Z,45.70
2018-12-12T16:10:10.736Z,53.43
2018-12-12T16:12:40.048Z,53.83
2018-12-12T16:15:08.965Z,53.83
2018-12-12T16:17:38.025Z,42.17
2018-12-12T16:20:08.024Z,45.77
2018-12-12T16:22:37.130Z,48.23
2018-12-12T16:25:06.602Z,45.70
2018-12-12T16:27:35.638Z,43.60
2018-12-12T16:30:05.393Z,41.33
2018-12-12T16:32:34.446Z,41.10
2018-12-12T16:35:03.489Z,49.80
2018-12-12T16:37:32.473Z,57.57
2018-12-12T16:40:01.593Z,56.67
2018-12-12T16:42:30.641Z,58.63
2018-12-12T16:45:00.046Z,59.70
2018-12-12T16:47:28.941Z,59.97
2018-12-12T16:49:58.262Z,66.27
2018-12-12T16:52:27.074Z,63.97
2018-12-12T16:54:56.278Z,63.60
2018-12-12T16:57:25.373Z,62.60
2018-12-12T16:59:54.471Z,62.23
2018-12-12T17:02:23.512Z,60.23
2018-12-12T17:04:53.288Z,62.30
2018-12-12T17:07:22.285Z,63.33
2018-12-12T17:09:51.193Z,64.60
2018-12-12T17:12:20.376Z,68.13
2018-12-12T17:14:49.803Z,73.03
2018-12-12T17:17:18.913Z,81.77
2018-12-12T17:19:48.004Z,88.00
2018-12-12T17:22:16.922Z,100.53
2018-12-12T17:24:46.038Z,99.47
2018-12-12T17:27:14.942Z,98.97
2018-12-12T17:29:43.967Z,94.70
2018-12-12T17:32:13.057Z,95.33
2018-12-12T17:34:42.085Z,108.97
2018-12-12T17:37:11.017Z,117.43
2018-12-12T17:39:39.835Z,111.33
2018-12-12T17:42:08.828Z,102.20
2018-12-12T17:44:37.833Z,98.57
2018-12-12T17:47:06.764Z,105.50
2018-12-12T17:49:35.679Z,101.13
2018-12-12T17:52:05.174Z,104.03
2018-12-12T17:54:34.272Z,108.40
2018-12-12T17:57:03.325Z,104.53
2018-12-12T17:59:32.345Z,105.20
2018-12-12T18:02:01.304Z,101.70
2018-12-12T18:04:30.207Z,105.73
2018-12-12T18:06:59.138Z,101.13
2018-12-12T18:09:28.370Z,93.80
2018-12-12T18:11:57.282Z,91.47
2018-12-12T18:14:26.271Z,90.23
2018-12-12T18:16:55.269Z,79.03
2018-12-12T18:19:24.173Z,73.97
2018-12-12T18:21:53.416Z,68.93
2018-12-12T18:24:22.544Z,68.00
2018-12-12T18:26:51.541Z,65.27
2018-12-12T18:29:22.017Z,64.77
2018-12-12T18:31:51.319Z,66.77
2018-12-12T18:34:20.516Z,64.90
2018-12-12T18:36:49.562Z,62.77
2018-12-12T18:39:19.126Z,61.53
2018-12-12T18:41:48.066Z,60.27
2018-12-12T18:44:16.990Z,64.93
2018-12-12T18:46:45.994Z,61.03
2018-12-12T18:49:14.999Z,61.23
2018-12-12T18:51:43.895Z,62.70
2018-12-12T18:54:13.313Z,63.50
2018-12-12T18:56:42.364Z,63.33
2018-12-12T18:59:11.325Z,59.70
2018-12-12T19:01:40.321Z,63.27
2018-12-12T19:04:09.416Z,66.93
2018-12-12T19:06:38.346Z,66.17
2018-12-12T19:09:07.605Z,63.33
2018-12-12T19:11:36.826Z,63.40
2018-12-12T19:14:05.873Z,67.00
2018-12-12T19:16:34.806Z,68.90
2018-12-12T19:19:03.859Z,67.00
2018-12-12T19:21:32.754Z,64.20
2018-12-12T19:24:01.778Z,53.73
2018-12-12T19:26:30.957Z,49.80
2018-12-12T19:29:00.069Z,45.00
2018-12-12T19:31:29.904Z,42.70
2018-12-12T19:33:58.826Z,42.43
2018-12-12T19:36:28.615Z,41.63
2018-12-12T19:38:57.739Z,41.70
2018-12-12T19:41:26.836Z,43.47
2018-12-12T19:43:55.862Z,42.87
2018-12-12T19:46:24.896Z,37.50
2018-12-12T19:48:53.794Z,38.07
2018-12-12T19:51:22.828Z,39.87
2018-12-12T19:53:51.934Z,38.93
2018-12-12T19:56:20.829Z,37.10
2018-12-12T19:58:49.953Z,38.13
2018-12-12T20:01:18.872Z,37.07
2018-12-12T20:03:47.933Z,36.40
2018-12-12T20:06:16.959Z,34.30
2018-12-12T20:08:45.851Z,32.27
2018-12-12T20:11:15.185Z,34.03
2018-12-12T20:13:45.209Z,31.63
2018-12-12T20:16:14.224Z,31.77
2018-12-12T20:18:43.447Z,31.27
2018-12-12T20:21:17.224Z,33.50
2018-12-12T20:23:46.614Z,32.87
2018-12-12T20:26:15.545Z,33.60
2018-12-12T20:28:44.537Z,31.13
2018-12-12T20:31:13.752Z,31.77
2018-12-12T20:33:42.599Z,30.43
2018-12-12T20:36:11.496Z,29.30
2018-12-12T20:38:40.501Z,30.60
2018-12-12T20:41:09.408Z,28.40
2018-12-12T20:43:38.521Z,28.73
2018-12-12T20:46:07.645Z,28.93
2018-12-12T20:48:36.572Z,29.93
2018-12-12T20:51:05.421Z,30.30
2018-12-12T20:53:34.401Z,32.53
2018-12-12T20:56:03.568Z,34.40
2018-12-12T20:58:32.853Z,35.23
2018-12-12T21:01:01.853Z,39.87
2018-12-12T21:03:36.296Z,38.50
2018-12-12T21:06:06.529Z,41.33
2018-12-12T21:08:35.574Z,40.30
2018-12-12T21:11:04.516Z,42.37
2018-12-12T21:13:33.559Z,45.07
2018-12-12T21:16:02.489Z,43.17
2018-12-12T21:18:31.600Z,43.80
2018-12-12T21:21:00.877Z,42.70
2018-12-12T21:23:29.979Z,44.00
2018-12-12T21:25:59.393Z,46.33
2018-12-12T21:28:28.386Z,45.30
2018-12-12T21:30:57.993Z,44.67
2018-12-12T21:33:26.917Z,48.17
2018-12-12T21:36:00.823Z,46.23
2018-12-12T21:38:26.767Z,47.73
2018-12-12T21:40:56.477Z,48.00
2018-12-12T21:43:25.524Z,47.93
2018-12-12T21:45:54.550Z,50.77
2018-12-12T21:48:23.452Z,47.07
2018-12-12T21:50:52.868Z,46.20
2018-12-12T21:53:24.061Z,47.13
2018-12-12T21:55:53.169Z,46.90
2018-12-12T21:58:22.061Z,46.20
2018-12-12T22:00:50.986Z,52.97
2018-12-12T22:03:19.902Z,49.80
2018-12-12T22:05:49.426Z,46.40
2018-12-12T22:08:21.185Z,43.63
2018-12-12T22:10:50.218Z,42.77
2018-12-12T22:13:19.100Z,42.07
2018-12-12T22:15:48.121Z,41.03
2018-12-12T22:18:17.169Z,39.43
2018-12-12T22:20:46.338Z,38.90
2018-12-12T22:23:15.721Z,38.07
2018-12-12T22:25:44.621Z,37.20
2018-12-12T22:28:13.657Z,38.10
2018-12-12T22:30:42.873Z,36.80
2018-12-12T22:33:11.777Z,34.93
2018-12-12T22:35:40.785Z,37.17
2018-12-12T22:38:09.787Z,36.30
2018-12-12T22:40:38.718Z,39.80
2018-12-12T22:43:07.623Z,38.17
2018-12-12T22:45:36.692Z,38.03
2018-12-12T22:48:05.764Z,38.37
2018-12-12T22:50:34.669Z,38.13
2018-12-12T22:53:03.795Z,36.07
2018-12-12T22:55:32.665Z,39.33
2018-12-12T22:58:01.574Z,40.20
2018-12-12T23:00:34.710Z,40.97
2018-12-12T23:03:03.633Z,38.07
2018-12-12T23:05:32.968Z,38.40
2018-12-12T23:08:01.873Z,37.33
2018-12-12T23:10:30.761Z,39.03
2018-12-12T23:12:59.757Z,38.73
2018-12-12T23:15:28.753Z,39.50
2018-12-12T23:17:57.662Z,41.30
2018-12-12T23:20:26.560Z,38.83
2018-12-12T23:22:55.575Z,38.17
2018-12-12T23:25:24.478Z,35.33
2018-12-12T23:27:53.414Z,34.37
2018-12-12T23:30:22.462Z,32.13
2018-12-12T23:32:52.194Z,29.03
2018-12-12T23:35:21.118Z,28.00
2018-12-12T23:37:50.121Z,26.00
2018-12-12T23:40:19.039Z,23.17
2018-12-12T23:42:47.942Z,21.33
2018-12-12T23:45:16.870Z,17.60
2018-12-12T23:47:45.981Z,19.10
2018-12-12T23:50:15.026Z,16.77
2018-12-12T23:52:44.045Z,17.90
2018-12-12T23:55:12.949Z,16.93
2018-12-12T23:57:41.958Z,18.43
